DLH4UV EDDB-EDDM
Flight info
| Callsign | DLH4UV |
|---|---|
| Flight time | 0h 46m |
| Altitude | 34000 |
| Route | LUROS4N LUROS Y211 BEBKU Z36 MAREM DCT YUJKI DCT BALTU DCT LOMKI DCT VESUB T106 TUSTO T108 LANDU LANDU2B |
| Aircraft | A321/M-SDE3FGHIRWY/LB1 |
Departure
| Time | 2026-05-03 21:27 |
|---|---|
| Airport | Berlin Brandenburg Airport (EDDB) |
Arrival
| Time | 2026-05-03 22:14 |
|---|---|
| Airport | Munich Airport (EDDM) |
| Time | Latitude | Longitude | Altitude | Speed | Heading |
|---|---|---|---|---|---|
| 2026-05-03 20:56 | 52.36503 | 13.50512 | 155 ft | 0 kts | 69° |
| 2026-05-03 21:18 | 52.36499 | 13.50497 | 155 ft | 4 kts | 69° |
| 2026-05-03 21:19 | 52.36490 | 13.50457 | 155 ft | 4 kts | 69° |
| 2026-05-03 21:19 | 52.36481 | 13.50419 | 155 ft | 3 kts | 70° |
| 2026-05-03 21:19 | 52.36479 | 13.50385 | 155 ft | 4 kts | 134° |
| 2026-05-03 21:19 | 52.36500 | 13.50365 | 155 ft | 4 kts | 159° |
| 2026-05-03 21:20 | 52.36513 | 13.50356 | 155 ft | 0 kts | 159° |
| 2026-05-03 21:22 | 52.36513 | 13.50357 | 155 ft | 1 kts | 159° |
| 2026-05-03 21:23 | 52.36502 | 13.50364 | 155 ft | 3 kts | 159° |
| 2026-05-03 21:23 | 52.36473 | 13.50382 | 155 ft | 6 kts | 159° |
| 2026-05-03 21:23 | 52.36446 | 13.50399 | 155 ft | 7 kts | 159° |
| 2026-05-03 21:23 | 52.36371 | 13.50446 | 155 ft | 10 kts | 159° |
| 2026-05-03 21:24 | 52.36298 | 13.50492 | 155 ft | 12 kts | 159° |
| 2026-05-03 21:24 | 52.36211 | 13.50547 | 154 ft | 14 kts | 159° |
| 2026-05-03 21:24 | 52.36144 | 13.50590 | 154 ft | 16 kts | 158° |
| 2026-05-03 21:24 | 52.36035 | 13.50659 | 154 ft | 18 kts | 159° |
| 2026-05-03 21:25 | 52.35915 | 13.50735 | 154 ft | 19 kts | 159° |
| 2026-05-03 21:25 | 52.35795 | 13.50809 | 154 ft | 13 kts | 159° |
| 2026-05-03 21:25 | 52.35707 | 13.50833 | 154 ft | 14 kts | 193° |
| 2026-05-03 21:25 | 52.35622 | 13.50742 | 154 ft | 16 kts | 219° |
| 2026-05-03 21:26 | 52.35533 | 13.50625 | 154 ft | 17 kts | 218° |
| 2026-05-03 21:26 | 52.35446 | 13.50524 | 154 ft | 10 kts | 193° |
| 2026-05-03 21:26 | 52.35406 | 13.50476 | 154 ft | 8 kts | 240° |
| 2026-05-03 21:26 | 52.35355 | 13.50261 | 154 ft | 49 kts | 249° |
| 2026-05-03 21:27 | 52.35143 | 13.49369 | 157 ft | 117 kts | 249° |
| 2026-05-03 21:27 | 52.34779 | 13.47848 | 209 ft | 165 kts | 248° |
| 2026-05-03 21:27 | 52.34357 | 13.46121 | 924 ft | 160 kts | 249° |
| 2026-05-03 21:27 | 52.33847 | 13.44502 | 1582 ft | 166 kts | 236° |
| 2026-05-03 21:28 | 52.33017 | 13.43001 | 1794 ft | 190 kts | 232° |
| 2026-05-03 21:28 | 52.32103 | 13.41341 | 2092 ft | 206 kts | 232° |
| 2026-05-03 21:28 | 52.31138 | 13.39575 | 2663 ft | 211 kts | 232° |
| 2026-05-03 21:28 | 52.30151 | 13.37776 | 3413 ft | 214 kts | 230° |
| 2026-05-03 21:29 | 52.29143 | 13.35945 | 4093 ft | 219 kts | 229° |
| 2026-05-03 21:29 | 52.28113 | 13.34070 | 4739 ft | 224 kts | 228° |
| 2026-05-03 21:29 | 52.27063 | 13.32158 | 5391 ft | 228 kts | 227° |
| 2026-05-03 21:29 | 52.25996 | 13.30206 | 6105 ft | 230 kts | 226° |
| 2026-05-03 21:30 | 52.24836 | 13.28420 | 6760 ft | 229 kts | 206° |
| 2026-05-03 21:30 | 52.23289 | 13.27962 | 7392 ft | 231 kts | 171° |
| 2026-05-03 21:30 | 52.21712 | 13.28854 | 7716 ft | 253 kts | 158° |
| 2026-05-03 21:30 | 52.20086 | 13.30089 | 8128 ft | 266 kts | 157° |
| 2026-05-03 21:31 | 52.18401 | 13.31408 | 8781 ft | 270 kts | 157° |
| 2026-05-03 21:31 | 52.16708 | 13.32745 | 9480 ft | 272 kts | 158° |
| 2026-05-03 21:31 | 52.15109 | 13.34004 | 10081 ft | 276 kts | 158° |
| 2026-05-03 21:31 | 52.13368 | 13.35360 | 10264 ft | 296 kts | 158° |
| 2026-05-03 21:32 | 52.11402 | 13.36880 | 10391 ft | 317 kts | 158° |
| 2026-05-03 21:32 | 52.09321 | 13.38489 | 10508 ft | 337 kts | 158° |
| 2026-05-03 21:32 | 52.07196 | 13.40138 | 10741 ft | 350 kts | 157° |
| 2026-05-03 21:32 | 52.04965 | 13.41873 | 11231 ft | 355 kts | 158° |
| 2026-05-03 21:33 | 52.02722 | 13.43615 | 11790 ft | 359 kts | 158° |
| 2026-05-03 21:33 | 52.00459 | 13.45368 | 12336 ft | 363 kts | 158° |
| 2026-05-03 21:33 | 51.98164 | 13.47140 | 12874 ft | 367 kts | 158° |
| 2026-05-03 21:33 | 51.95847 | 13.48922 | 13389 ft | 370 kts | 158° |
| 2026-05-03 21:34 | 51.93507 | 13.50720 | 13916 ft | 374 kts | 158° |
| 2026-05-03 21:34 | 51.91140 | 13.52541 | 14394 ft | 377 kts | 158° |
| 2026-05-03 21:34 | 51.88763 | 13.54371 | 14897 ft | 380 kts | 158° |
| 2026-05-03 21:34 | 51.86366 | 13.56211 | 15407 ft | 383 kts | 159° |
| 2026-05-03 21:35 | 51.83948 | 13.58062 | 15907 ft | 385 kts | 159° |
| 2026-05-03 21:35 | 51.81514 | 13.59921 | 16388 ft | 388 kts | 159° |
| 2026-05-03 21:35 | 51.79092 | 13.61767 | 16842 ft | 391 kts | 159° |
| 2026-05-03 21:35 | 51.76595 | 13.63665 | 17315 ft | 394 kts | 159° |
| 2026-05-03 21:36 | 51.74136 | 13.65535 | 17774 ft | 396 kts | 158° |
| 2026-05-03 21:36 | 51.71631 | 13.67445 | 18213 ft | 399 kts | 158° |
| 2026-05-03 21:36 | 51.69117 | 13.69359 | 18647 ft | 399 kts | 158° |
| 2026-05-03 21:36 | 51.66606 | 13.71268 | 19097 ft | 400 kts | 158° |
| 2026-05-03 21:37 | 51.64082 | 13.73184 | 19491 ft | 402 kts | 158° |
| 2026-05-03 21:37 | 51.61537 | 13.75114 | 19876 ft | 405 kts | 158° |
| 2026-05-03 21:37 | 51.58979 | 13.77047 | 20257 ft | 407 kts | 158° |
| 2026-05-03 21:37 | 51.56400 | 13.78992 | 20642 ft | 410 kts | 158° |
| 2026-05-03 21:38 | 51.53811 | 13.80942 | 21022 ft | 413 kts | 158° |
| 2026-05-03 21:38 | 51.51199 | 13.82909 | 21398 ft | 415 kts | 158° |
| 2026-05-03 21:38 | 51.48537 | 13.84699 | 21753 ft | 415 kts | 165° |
| 2026-05-03 21:38 | 51.45722 | 13.85753 | 22105 ft | 414 kts | 175° |
| 2026-05-03 21:39 | 51.42889 | 13.85998 | 22441 ft | 413 kts | 185° |
| 2026-05-03 21:39 | 51.40041 | 13.85448 | 22782 ft | 414 kts | 192° |
| 2026-05-03 21:39 | 51.37197 | 13.84604 | 23127 ft | 416 kts | 192° |
| 2026-05-03 21:39 | 51.34339 | 13.83769 | 23472 ft | 419 kts | 192° |
| 2026-05-03 21:40 | 51.31456 | 13.82938 | 23762 ft | 422 kts | 192° |
| 2026-05-03 21:40 | 51.28561 | 13.82106 | 24057 ft | 424 kts | 192° |
| 2026-05-03 21:40 | 51.25655 | 13.81272 | 24359 ft | 426 kts | 192° |
| 2026-05-03 21:40 | 51.22731 | 13.80434 | 24650 ft | 428 kts | 192° |
| 2026-05-03 21:41 | 51.19794 | 13.79592 | 24927 ft | 430 kts | 192° |
| 2026-05-03 21:41 | 51.16844 | 13.78746 | 25227 ft | 432 kts | 192° |
| 2026-05-03 21:41 | 51.13875 | 13.77896 | 25513 ft | 434 kts | 192° |
| 2026-05-03 21:41 | 51.10895 | 13.77042 | 25802 ft | 436 kts | 192° |
| 2026-05-03 21:42 | 51.07896 | 13.76182 | 26099 ft | 438 kts | 192° |
| 2026-05-03 21:42 | 51.04890 | 13.75323 | 26378 ft | 440 kts | 192° |
| 2026-05-03 21:42 | 51.01881 | 13.74467 | 26645 ft | 441 kts | 192° |
| 2026-05-03 21:42 | 50.98846 | 13.73605 | 26893 ft | 443 kts | 192° |
| 2026-05-03 21:43 | 50.95840 | 13.72753 | 27130 ft | 445 kts | 192° |
| 2026-05-03 21:43 | 50.92751 | 13.71880 | 27366 ft | 447 kts | 192° |
| 2026-05-03 21:43 | 50.89685 | 13.70997 | 27592 ft | 448 kts | 194° |
| 2026-05-03 21:43 | 50.86713 | 13.69745 | 27803 ft | 448 kts | 198° |
| 2026-05-03 21:44 | 50.83707 | 13.68385 | 28031 ft | 449 kts | 198° |
| 2026-05-03 21:44 | 50.80707 | 13.67029 | 28342 ft | 448 kts | 198° |
| 2026-05-03 21:44 | 50.77708 | 13.65677 | 28648 ft | 447 kts | 197° |
| 2026-05-03 21:44 | 50.74720 | 13.64330 | 28932 ft | 447 kts | 197° |
| 2026-05-03 21:45 | 50.71728 | 13.63021 | 29217 ft | 447 kts | 194° |
| 2026-05-03 21:45 | 50.68662 | 13.62157 | 29503 ft | 448 kts | 191° |
| 2026-05-03 21:45 | 50.65582 | 13.61380 | 29806 ft | 447 kts | 191° |
| 2026-05-03 21:45 | 50.62510 | 13.60603 | 30093 ft | 446 kts | 191° |
| 2026-05-03 21:46 | 50.59451 | 13.59824 | 30357 ft | 446 kts | 191° |
| 2026-05-03 21:46 | 50.56392 | 13.59046 | 30614 ft | 445 kts | 191° |
| 2026-05-03 21:46 | 50.53334 | 13.58272 | 30862 ft | 444 kts | 191° |
| 2026-05-03 21:46 | 50.50285 | 13.57506 | 31110 ft | 444 kts | 191° |
| 2026-05-03 21:47 | 50.47258 | 13.56613 | 31352 ft | 442 kts | 196° |
| 2026-05-03 21:47 | 50.44347 | 13.55073 | 31604 ft | 439 kts | 204° |
| 2026-05-03 21:47 | 50.41554 | 13.53278 | 31841 ft | 439 kts | 204° |
| 2026-05-03 21:47 | 50.38724 | 13.51468 | 32099 ft | 438 kts | 204° |
| 2026-05-03 21:48 | 50.35904 | 13.49673 | 32356 ft | 437 kts | 204° |
| 2026-05-03 21:48 | 50.33086 | 13.47884 | 32612 ft | 437 kts | 204° |
| 2026-05-03 21:48 | 50.30268 | 13.46098 | 32861 ft | 436 kts | 204° |
| 2026-05-03 21:48 | 50.27455 | 13.44321 | 33116 ft | 435 kts | 203° |
| 2026-05-03 21:49 | 50.24642 | 13.42549 | 33360 ft | 435 kts | 204° |
| 2026-05-03 21:49 | 50.21841 | 13.40783 | 33611 ft | 434 kts | 204° |
| 2026-05-03 21:49 | 50.19039 | 13.39018 | 33852 ft | 434 kts | 204° |
| 2026-05-03 21:49 | 50.16241 | 13.37255 | 33953 ft | 433 kts | 204° |
| 2026-05-03 21:50 | 50.10650 | 13.33744 | 33962 ft | 433 kts | 204° |
| 2026-05-03 21:50 | 50.04992 | 13.30515 | 33962 ft | 434 kts | 199° |
| 2026-05-03 21:51 | 49.99204 | 13.27847 | 33963 ft | 434 kts | 197° |
| 2026-05-03 21:51 | 49.93388 | 13.25276 | 33961 ft | 434 kts | 198° |
| 2026-05-03 21:52 | 49.87642 | 13.22588 | 33962 ft | 434 kts | 199° |
| 2026-05-03 21:52 | 49.81891 | 13.19661 | 33973 ft | 434 kts | 200° |
| 2026-05-03 21:53 | 49.76150 | 13.16709 | 33983 ft | 435 kts | 200° |
| 2026-05-03 21:53 | 49.70394 | 13.13813 | 33990 ft | 435 kts | 199° |
| 2026-05-03 21:54 | 49.64618 | 13.10944 | 33980 ft | 435 kts | 199° |
| 2026-05-03 21:54 | 49.58897 | 13.08123 | 33985 ft | 435 kts | 199° |
| 2026-05-03 21:55 | 49.56011 | 13.06705 | 33748 ft | 434 kts | 199° |
| 2026-05-03 21:55 | 49.53136 | 13.05290 | 33017 ft | 435 kts | 199° |
| 2026-05-03 21:55 | 49.50255 | 13.03867 | 32262 ft | 435 kts | 199° |
| 2026-05-03 21:55 | 49.47375 | 13.02445 | 31473 ft | 435 kts | 199° |
| 2026-05-03 21:56 | 49.44482 | 13.01020 | 30644 ft | 437 kts | 199° |
| 2026-05-03 21:56 | 49.41596 | 12.99488 | 29727 ft | 440 kts | 204° |
| 2026-05-03 21:56 | 49.38820 | 12.97499 | 28767 ft | 441 kts | 206° |
| 2026-05-03 21:56 | 49.36041 | 12.95457 | 27831 ft | 442 kts | 206° |
| 2026-05-03 21:57 | 49.33261 | 12.93420 | 26814 ft | 444 kts | 206° |
| 2026-05-03 21:57 | 49.30460 | 12.91375 | 25836 ft | 446 kts | 206° |
| 2026-05-03 21:57 | 49.27677 | 12.89355 | 25240 ft | 439 kts | 206° |
| 2026-05-03 21:57 | 49.24928 | 12.87363 | 24552 ft | 435 kts | 206° |
| 2026-05-03 21:58 | 49.22208 | 12.85394 | 23890 ft | 431 kts | 206° |
| 2026-05-03 21:58 | 49.19509 | 12.83441 | 23174 ft | 427 kts | 206° |
| 2026-05-03 21:58 | 49.16849 | 12.81514 | 22507 ft | 420 kts | 206° |
| 2026-05-03 21:58 | 49.14259 | 12.79640 | 21871 ft | 413 kts | 206° |
| 2026-05-03 21:59 | 49.11647 | 12.77754 | 21235 ft | 407 kts | 206° |
| 2026-05-03 21:59 | 49.09111 | 12.75921 | 20606 ft | 400 kts | 206° |
| 2026-05-03 21:59 | 49.06644 | 12.74138 | 19983 ft | 395 kts | 206° |
| 2026-05-03 21:59 | 49.04182 | 12.72361 | 19413 ft | 390 kts | 206° |
| 2026-05-03 22:00 | 49.01738 | 12.70602 | 18825 ft | 385 kts | 205° |
| 2026-05-03 22:00 | 48.99333 | 12.68874 | 18261 ft | 380 kts | 205° |
| 2026-05-03 22:00 | 48.96957 | 12.67170 | 17671 ft | 374 kts | 205° |
| 2026-05-03 22:00 | 48.95958 | 12.66454 | 17450 ft | 371 kts | 205° |
| 2026-05-03 22:01 | 48.93643 | 12.64798 | 16932 ft | 364 kts | 205° |
| 2026-05-03 22:01 | 48.91364 | 12.63165 | 16439 ft | 361 kts | 205° |
| 2026-05-03 22:01 | 48.89096 | 12.61545 | 15953 ft | 359 kts | 205° |
| 2026-05-03 22:01 | 48.86842 | 12.59942 | 15458 ft | 357 kts | 205° |
| 2026-05-03 22:02 | 48.84589 | 12.58345 | 14957 ft | 356 kts | 205° |
| 2026-05-03 22:02 | 48.82359 | 12.56765 | 14457 ft | 354 kts | 205° |
| 2026-05-03 22:02 | 48.80133 | 12.55185 | 13947 ft | 352 kts | 205° |
| 2026-05-03 22:02 | 48.77914 | 12.53611 | 13387 ft | 350 kts | 205° |
| 2026-05-03 22:03 | 48.75679 | 12.52155 | 12851 ft | 349 kts | 200° |
| 2026-05-03 22:03 | 48.73403 | 12.50920 | 12291 ft | 347 kts | 200° |
| 2026-05-03 22:03 | 48.71158 | 12.49711 | 11732 ft | 345 kts | 199° |
| 2026-05-03 22:03 | 48.68889 | 12.48428 | 11281 ft | 340 kts | 206° |
| 2026-05-03 22:04 | 48.66977 | 12.46467 | 11201 ft | 331 kts | 220° |
| 2026-05-03 22:04 | 48.65284 | 12.44227 | 10984 ft | 319 kts | 220° |
| 2026-05-03 22:04 | 48.63611 | 12.42021 | 10653 ft | 310 kts | 220° |
| 2026-05-03 22:04 | 48.61886 | 12.40260 | 10445 ft | 298 kts | 205° |
| 2026-05-03 22:05 | 48.60051 | 12.38935 | 10247 ft | 288 kts | 205° |
| 2026-05-03 22:05 | 48.58261 | 12.37630 | 10008 ft | 284 kts | 204° |
| 2026-05-03 22:05 | 48.56486 | 12.36337 | 9838 ft | 282 kts | 204° |
| 2026-05-03 22:05 | 48.54714 | 12.35049 | 9714 ft | 283 kts | 205° |
| 2026-05-03 22:06 | 48.52939 | 12.33762 | 9559 ft | 283 kts | 204° |
| 2026-05-03 22:06 | 48.51153 | 12.32472 | 9075 ft | 286 kts | 205° |
| 2026-05-03 22:06 | 48.49350 | 12.31169 | 8607 ft | 286 kts | 205° |
| 2026-05-03 22:06 | 48.47559 | 12.29876 | 8118 ft | 286 kts | 205° |
| 2026-05-03 22:07 | 48.45795 | 12.28604 | 7669 ft | 282 kts | 205° |
| 2026-05-03 22:07 | 48.44019 | 12.27326 | 7135 ft | 282 kts | 205° |
| 2026-05-03 22:07 | 48.42239 | 12.26045 | 6621 ft | 282 kts | 206° |
| 2026-05-03 22:07 | 48.40460 | 12.24763 | 6030 ft | 284 kts | 207° |
| 2026-05-03 22:08 | 48.38843 | 12.23139 | 5668 ft | 274 kts | 226° |
| 2026-05-03 22:08 | 48.37778 | 12.20871 | 5420 ft | 259 kts | 250° |
| 2026-05-03 22:08 | 48.37450 | 12.18305 | 5173 ft | 244 kts | 277° |
| 2026-05-03 22:08 | 48.37736 | 12.16720 | 5061 ft | 232 kts | 296° |
| 2026-05-03 22:09 | 48.38556 | 12.13963 | 4998 ft | 229 kts | 291° |
| 2026-05-03 22:09 | 48.38819 | 12.11697 | 5021 ft | 217 kts | 270° |
| 2026-05-03 22:09 | 48.38735 | 12.09448 | 4920 ft | 211 kts | 265° |
| 2026-05-03 22:10 | 48.38430 | 12.05319 | 4436 ft | 190 kts | 264° |
| 2026-05-03 22:10 | 48.38285 | 12.03383 | 4193 ft | 183 kts | 264° |
| 2026-05-03 22:10 | 48.38146 | 12.01516 | 3956 ft | 176 kts | 265° |
| 2026-05-03 22:10 | 48.38011 | 11.99707 | 3729 ft | 171 kts | 265° |
| 2026-05-03 22:11 | 48.37881 | 11.97966 | 3509 ft | 164 kts | 265° |
| 2026-05-03 22:11 | 48.37759 | 11.96329 | 3323 ft | 150 kts | 265° |
| 2026-05-03 22:11 | 48.37645 | 11.94807 | 3111 ft | 143 kts | 266° |
| 2026-05-03 22:11 | 48.37539 | 11.93330 | 2915 ft | 142 kts | 266° |
| 2026-05-03 22:12 | 48.37468 | 11.92350 | 2797 ft | 141 kts | 266° |
| 2026-05-03 22:12 | 48.37326 | 11.90418 | 2551 ft | 140 kts | 266° |
| 2026-05-03 22:12 | 48.37242 | 11.89428 | 2416 ft | 142 kts | 265° |
| 2026-05-03 22:12 | 48.37130 | 11.87938 | 2235 ft | 145 kts | 266° |
| 2026-05-03 22:13 | 48.36985 | 11.85939 | 1992 ft | 145 kts | 264° |
| 2026-05-03 22:13 | 48.36890 | 11.84914 | 1867 ft | 147 kts | 264° |
| 2026-05-03 22:13 | 48.36780 | 11.83393 | 1696 ft | 145 kts | 265° |
| 2026-05-03 22:13 | 48.36666 | 11.81891 | 1509 ft | 143 kts | 265° |
| 2026-05-03 22:14 | 48.36570 | 11.80567 | 1485 ft | 106 kts | 264° |
| 2026-05-03 22:14 | 48.36508 | 11.79870 | 1475 ft | 40 kts | 254° |
| 2026-05-03 22:14 | 48.36380 | 11.79562 | 1480 ft | 31 kts | 233° |
| 2026-05-03 22:14 | 48.36275 | 11.79350 | 1481 ft | 16 kts | 232° |
| 2026-05-03 22:15 | 48.36176 | 11.79302 | 1476 ft | 16 kts | 176° |
| 2026-05-03 22:15 | 48.36061 | 11.79320 | 1476 ft | 17 kts | 172° |
| 2026-05-03 22:15 | 48.35945 | 11.79343 | 1481 ft | 15 kts | 165° |
| 2026-05-03 22:15 | 48.35844 | 11.79388 | 1482 ft | 16 kts | 172° |
| 2026-05-03 22:16 | 48.35771 | 11.79434 | 1478 ft | 11 kts | 112° |
| 2026-05-03 22:16 | 48.35776 | 11.79552 | 1472 ft | 12 kts | 83° |
| 2026-05-03 22:16 | 48.35786 | 11.79686 | 1485 ft | 13 kts | 84° |
| 2026-05-03 22:16 | 48.35797 | 11.79833 | 1480 ft | 15 kts | 83° |
| 2026-05-03 22:17 | 48.35808 | 11.79976 | 1485 ft | 10 kts | 85° |
| 2026-05-03 22:17 | 48.35775 | 11.80063 | 1479 ft | 10 kts | 158° |
| 2026-05-03 22:17 | 48.35701 | 11.80076 | 1475 ft | 10 kts | 185° |
| 2026-05-03 22:17 | 48.35625 | 11.80073 | 1483 ft | 12 kts | 175° |
| 2026-05-03 22:18 | 48.35572 | 11.80081 | 1482 ft | 4 kts | 179° |
| 2026-05-03 22:18 | 48.35553 | 11.80050 | 1471 ft | 5 kts | 252° |
| 2026-05-03 22:18 | 48.35550 | 11.80018 | 1483 ft | 2 kts | 262° |
| 2026-05-03 22:18 | 48.35549 | 11.80002 | 1479 ft | 0 kts | 263° |
| 2026-05-03 22:19 | 48.35549 | 11.80000 | 1480 ft | 0 kts | 264° |